sensor_id;sensor_type;location;lat;lon;timestamp;P1;durP1;ratioP1;P2;durP2;ratioP2
9888;SDS011;4983;42.112;24.738;2022-09-09T00:00:56;13.90;;;10.40;;
9888;SDS011;4983;42.112;24.738;2022-09-09T00:03:36;12.37;;;10.73;;
9888;SDS011;4983;42.112;24.738;2022-09-09T00:06:13;13.97;;;11.43;;
9888;SDS011;4983;42.112;24.738;2022-09-09T00:08:48;12.43;;;10.90;;
9888;SDS011;4983;42.112;24.738;2022-09-09T00:11:26;12.40;;;11.10;;
9888;SDS011;4983;42.112;24.738;2022-09-09T00:13:57;13.57;;;10.60;;
9888;SDS011;4983;42.112;24.738;2022-09-09T00:16:30;12.90;;;11.60;;
9888;SDS011;4983;42.112;24.738;2022-09-09T00:19:04;11.13;;;10.00;;
9888;SDS011;4983;42.112;24.738;2022-09-09T00:21:36;12.27;;;11.00;;
9888;SDS011;4983;42.112;24.738;2022-09-09T00:24:08;12.37;;;10.43;;
9888;SDS011;4983;42.112;24.738;2022-09-09T00:26:42;11.37;;;10.17;;
9888;SDS011;4983;42.112;24.738;2022-09-09T00:29:18;10.63;;;9.63;;
9888;SDS011;4983;42.112;24.738;2022-09-09T00:31:55;12.97;;;10.43;;
9888;SDS011;4983;42.112;24.738;2022-09-09T00:34:28;12.00;;;10.07;;
9888;SDS011;4983;42.112;24.738;2022-09-09T00:36:58;11.40;;;10.30;;
9888;SDS011;4983;42.112;24.738;2022-09-09T00:39:27;11.43;;;10.30;;
9888;SDS011;4983;42.112;24.738;2022-09-09T00:42:03;12.73;;;10.23;;
9888;SDS011;4983;42.112;24.738;2022-09-09T00:44:44;10.97;;;9.87;;
9888;SDS011;4983;42.112;24.738;2022-09-09T00:50:17;11.47;;;10.23;;
9888;SDS011;4983;42.112;24.738;2022-09-09T00:53:05;10.67;;;9.60;;
9888;SDS011;4983;42.112;24.738;2022-09-09T00:55:45;12.10;;;10.90;;
9888;SDS011;4983;42.112;24.738;2022-09-09T00:58:15;11.57;;;10.27;;
9888;SDS011;4983;42.112;24.738;2022-09-09T01:00:43;11.57;;;10.37;;
9888;SDS011;4983;42.112;24.738;2022-09-09T01:03:26;15.17;;;11.80;;
9888;SDS011;4983;42.112;24.738;2022-09-09T01:06:11;12.40;;;10.67;;
9888;SDS011;4983;42.112;24.738;2022-09-09T01:11:45;11.20;;;10.00;;
9888;SDS011;4983;42.112;24.738;2022-09-09T01:14:35;11.73;;;10.53;;
9888;SDS011;4983;42.112;24.738;2022-09-09T01:17:11;16.27;;;11.37;;
9888;SDS011;4983;42.112;24.738;2022-09-09T01:19:50;12.53;;;11.13;;
9888;SDS011;4983;42.112;24.738;2022-09-09T01:22:29;12.37;;;10.90;;
9888;SDS011;4983;42.112;24.738;2022-09-09T01:25:09;13.87;;;10.87;;
9888;SDS011;4983;42.112;24.738;2022-09-09T01:27:47;12.83;;;11.60;;
9888;SDS011;4983;42.112;24.738;2022-09-09T01:30:17;11.97;;;10.87;;
9888;SDS011;4983;42.112;24.738;2022-09-09T01:32:45;13.73;;;11.53;;
9888;SDS011;4983;42.112;24.738;2022-09-09T01:35:23;12.83;;;11.63;;
9888;SDS011;4983;42.112;24.738;2022-09-09T01:37:58;13.00;;;11.73;;
9888;SDS011;4983;42.112;24.738;2022-09-09T01:40:25;13.17;;;11.87;;
9888;SDS011;4983;42.112;24.738;2022-09-09T01:42:54;13.13;;;11.27;;
9888;SDS011;4983;42.112;24.738;2022-09-09T01:45:22;13.93;;;11.37;;
9888;SDS011;4983;42.112;24.738;2022-09-09T01:47:51;12.53;;;11.23;;
9888;SDS011;4983;42.112;24.738;2022-09-09T01:50:20;12.30;;;11.10;;
9888;SDS011;4983;42.112;24.738;2022-09-09T01:52:48;12.20;;;11.00;;
9888;SDS011;4983;42.112;24.738;2022-09-09T01:55:19;12.33;;;11.07;;
9888;SDS011;4983;42.112;24.738;2022-09-09T01:57:58;17.80;;;12.10;;
9888;SDS011;4983;42.112;24.738;2022-09-09T02:00:39;12.83;;;11.63;;
9888;SDS011;4983;42.112;24.738;2022-09-09T02:03:16;13.87;;;12.20;;
9888;SDS011;4983;42.112;24.738;2022-09-09T02:05:52;13.07;;;11.67;;
9888;SDS011;4983;42.112;24.738;2022-09-09T02:08:28;17.87;;;13.23;;
9888;SDS011;4983;42.112;24.738;2022-09-09T02:11:05;16.73;;;12.03;;
9888;SDS011;4983;42.112;24.738;2022-09-09T02:13:37;13.27;;;12.03;;
9888;SDS011;4983;42.112;24.738;2022-09-09T02:16:07;12.87;;;11.60;;
9888;SDS011;4983;42.112;24.738;2022-09-09T02:18:35;13.87;;;11.63;;
9888;SDS011;4983;42.112;24.738;2022-09-09T02:21:09;15.87;;;12.10;;
9888;SDS011;4983;42.112;24.738;2022-09-09T02:23:39;12.70;;;11.40;;
9888;SDS011;4983;42.112;24.738;2022-09-09T02:26:09;12.57;;;11.47;;
9888;SDS011;4983;42.112;24.738;2022-09-09T02:28:40;15.67;;;11.63;;
9888;SDS011;4983;42.112;24.738;2022-09-09T02:31:08;13.70;;;11.10;;
9888;SDS011;4983;42.112;24.738;2022-09-09T02:33:37;14.43;;;12.33;;
9888;SDS011;4983;42.112;24.738;2022-09-09T02:36:09;14.07;;;11.80;;
9888;SDS011;4983;42.112;24.738;2022-09-09T02:38:40;14.27;;;11.90;;
9888;SDS011;4983;42.112;24.738;2022-09-09T02:41:16;51.87;;;13.77;;
9888;SDS011;4983;42.112;24.738;2022-09-09T02:43:46;35.33;;;13.60;;
9888;SDS011;4983;42.112;24.738;2022-09-09T02:46:19;30.70;;;13.43;;
9888;SDS011;4983;42.112;24.738;2022-09-09T02:48:57;20.23;;;12.97;;
9888;SDS011;4983;42.112;24.738;2022-09-09T02:51:29;16.27;;;13.80;;
9888;SDS011;4983;42.112;24.738;2022-09-09T02:54:09;17.30;;;13.57;;
9888;SDS011;4983;42.112;24.738;2022-09-09T02:56:41;15.50;;;12.93;;
9888;SDS011;4983;42.112;24.738;2022-09-09T02:59:16;16.63;;;13.13;;
9888;SDS011;4983;42.112;24.738;2022-09-09T03:01:43;22.37;;;12.90;;
9888;SDS011;4983;42.112;24.738;2022-09-09T03:04:10;36.63;;;14.27;;
9888;SDS011;4983;42.112;24.738;2022-09-09T03:06:38;25.00;;;13.10;;
9888;SDS011;4983;42.112;24.738;2022-09-09T03:09:06;18.33;;;12.60;;
9888;SDS011;4983;42.112;24.738;2022-09-09T03:11:35;22.13;;;13.43;;
9888;SDS011;4983;42.112;24.738;2022-09-09T03:14:03;18.40;;;12.60;;
9888;SDS011;4983;42.112;24.738;2022-09-09T03:16:33;13.53;;;12.10;;
9888;SDS011;4983;42.112;24.738;2022-09-09T03:19:00;14.03;;;12.50;;
9888;SDS011;4983;42.112;24.738;2022-09-09T03:21:28;13.97;;;11.80;;
9888;SDS011;4983;42.112;24.738;2022-09-09T03:23:57;14.93;;;12.50;;
9888;SDS011;4983;42.112;24.738;2022-09-09T03:26:24;13.90;;;12.40;;
9888;SDS011;4983;42.112;24.738;2022-09-09T03:28:52;29.97;;;14.60;;
9888;SDS011;4983;42.112;24.738;2022-09-09T03:31:19;32.20;;;14.27;;
9888;SDS011;4983;42.112;24.738;2022-09-09T03:33:48;32.47;;;13.70;;
9888;SDS011;4983;42.112;24.738;2022-09-09T03:36:16;20.83;;;13.33;;
9888;SDS011;4983;42.112;24.738;2022-09-09T03:38:44;29.60;;;13.40;;
9888;SDS011;4983;42.112;24.738;2022-09-09T03:41:11;20.43;;;13.30;;
9888;SDS011;4983;42.112;24.738;2022-09-09T03:43:39;36.10;;;15.03;;
9888;SDS011;4983;42.112;24.738;2022-09-09T03:46:08;99.63;;;23.63;;
9888;SDS011;4983;42.112;24.738;2022-09-09T03:48:35;16.47;;;14.00;;
9888;SDS011;4983;42.112;24.738;2022-09-09T03:51:04;15.70;;;14.03;;
9888;SDS011;4983;42.112;24.738;2022-09-09T03:53:32;19.63;;;13.60;;
9888;SDS011;4983;42.112;24.738;2022-09-09T03:56:00;17.50;;;13.47;;
9888;SDS011;4983;42.112;24.738;2022-09-09T03:58:28;13.37;;;12.13;;
9888;SDS011;4983;42.112;24.738;2022-09-09T04:00:55;17.07;;;12.80;;
9888;SDS011;4983;42.112;24.738;2022-09-09T04:03:24;31.93;;;12.33;;
9888;SDS011;4983;42.112;24.738;2022-09-09T04:05:52;27.73;;;13.33;;
9888;SDS011;4983;42.112;24.738;2022-09-09T04:08:21;21.10;;;11.80;;
9888;SDS011;4983;42.112;24.738;2022-09-09T04:10:51;27.87;;;12.50;;
9888;SDS011;4983;42.112;24.738;2022-09-09T04:13:18;33.33;;;13.47;;
9888;SDS011;4983;42.112;24.738;2022-09-09T04:15:50;18.37;;;12.33;;
9888;SDS011;4983;42.112;24.738;2022-09-09T04:18:18;68.43;;;15.93;;
9888;SDS011;4983;42.112;24.738;2022-09-09T04:20:46;49.00;;;14.03;;
9888;SDS011;4983;42.112;24.738;2022-09-09T04:23:14;44.17;;;14.97;;
9888;SDS011;4983;42.112;24.738;2022-09-09T04:25:46;40.17;;;14.27;;
9888;SDS011;4983;42.112;24.738;2022-09-09T04:28:15;35.90;;;14.03;;
9888;SDS011;4983;42.112;24.738;2022-09-09T04:30:43;45.60;;;14.33;;
9888;SDS011;4983;42.112;24.738;2022-09-09T04:33:11;33.97;;;13.70;;
9888;SDS011;4983;42.112;24.738;2022-09-09T04:35:43;36.20;;;14.53;;
9888;SDS011;4983;42.112;24.738;2022-09-09T04:38:12;24.83;;;13.37;;
9888;SDS011;4983;42.112;24.738;2022-09-09T04:40:41;99.53;;;20.73;;
9888;SDS011;4983;42.112;24.738;2022-09-09T04:43:11;32.20;;;14.50;;
9888;SDS011;4983;42.112;24.738;2022-09-09T04:45:39;30.77;;;14.47;;
9888;SDS011;4983;42.112;24.738;2022-09-09T04:48:08;23.23;;;13.80;;
9888;SDS011;4983;42.112;24.738;2022-09-09T04:50:36;19.47;;;13.73;;
9888;SDS011;4983;42.112;24.738;2022-09-09T04:53:04;40.40;;;15.23;;
9888;SDS011;4983;42.112;24.738;2022-09-09T04:55:31;20.17;;;14.33;;
9888;SDS011;4983;42.112;24.738;2022-09-09T04:58:02;33.63;;;15.63;;
9888;SDS011;4983;42.112;24.738;2022-09-09T05:00:32;22.30;;;13.77;;
9888;SDS011;4983;42.112;24.738;2022-09-09T05:03:02;32.07;;;15.67;;
9888;SDS011;4983;42.112;24.738;2022-09-09T05:05:30;16.10;;;12.97;;
9888;SDS011;4983;42.112;24.738;2022-09-09T05:08:02;57.47;;;17.57;;
9888;SDS011;4983;42.112;24.738;2022-09-09T05:10:30;40.33;;;15.80;;
9888;SDS011;4983;42.112;24.738;2022-09-09T05:12:58;76.57;;;20.77;;
9888;SDS011;4983;42.112;24.738;2022-09-09T05:15:25;18.03;;;13.30;;
9888;SDS011;4983;42.112;24.738;2022-09-09T05:17:57;20.80;;;13.73;;
9888;SDS011;4983;42.112;24.738;2022-09-09T05:20:25;22.93;;;13.17;;
9888;SDS011;4983;42.112;24.738;2022-09-09T05:22:53;15.70;;;11.93;;
9888;SDS011;4983;42.112;24.738;2022-09-09T05:25:20;14.10;;;11.43;;
9888;SDS011;4983;42.112;24.738;2022-09-09T05:27:48;14.90;;;12.13;;
9888;SDS011;4983;42.112;24.738;2022-09-09T05:30:16;48.53;;;13.80;;
9888;SDS011;4983;42.112;24.738;2022-09-09T05:32:45;26.83;;;13.03;;
9888;SDS011;4983;42.112;24.738;2022-09-09T05:35:14;15.30;;;11.00;;
9888;SDS011;4983;42.112;24.738;2022-09-09T05:37:43;51.83;;;14.00;;
9888;SDS011;4983;42.112;24.738;2022-09-09T05:40:11;19.57;;;11.43;;
9888;SDS011;4983;42.112;24.738;2022-09-09T05:42:39;17.53;;;11.63;;
9888;SDS011;4983;42.112;24.738;2022-09-09T05:45:06;15.00;;;10.83;;
9888;SDS011;4983;42.112;24.738;2022-09-09T05:47:36;23.77;;;11.13;;
9888;SDS011;4983;42.112;24.738;2022-09-09T05:50:04;19.13;;;11.03;;
9888;SDS011;4983;42.112;24.738;2022-09-09T05:52:33;14.10;;;10.30;;
9888;SDS011;4983;42.112;24.738;2022-09-09T05:55:01;29.00;;;10.60;;
9888;SDS011;4983;42.112;24.738;2022-09-09T05:57:29;19.50;;;10.43;;
9888;SDS011;4983;42.112;24.738;2022-09-09T05:59:57;23.30;;;10.57;;
9888;SDS011;4983;42.112;24.738;2022-09-09T06:02:25;10.70;;;8.60;;
9888;SDS011;4983;42.112;24.738;2022-09-09T06:04:52;14.37;;;8.37;;
9888;SDS011;4983;42.112;24.738;2022-09-09T06:07:22;20.67;;;9.00;;
9888;SDS011;4983;42.112;24.738;2022-09-09T06:09:51;11.00;;;8.47;;
9888;SDS011;4983;42.112;24.738;2022-09-09T06:12:19;29.00;;;10.60;;
9888;SDS011;4983;42.112;24.738;2022-09-09T06:14:47;8.80;;;7.17;;
9888;SDS011;4983;42.112;24.738;2022-09-09T06:17:16;11.20;;;6.83;;
9888;SDS011;4983;42.112;24.738;2022-09-09T06:19:43;9.13;;;7.23;;
9888;SDS011;4983;42.112;24.738;2022-09-09T06:22:10;14.37;;;8.37;;
9888;SDS011;4983;42.112;24.738;2022-09-09T06:24:38;12.83;;;7.43;;
9888;SDS011;4983;42.112;24.738;2022-09-09T06:27:07;10.37;;;7.70;;
9888;SDS011;4983;42.112;24.738;2022-09-09T06:29:34;13.07;;;7.97;;
9888;SDS011;4983;42.112;24.738;2022-09-09T06:32:01;14.63;;;8.43;;
9888;SDS011;4983;42.112;24.738;2022-09-09T06:34:30;11.63;;;7.90;;
9888;SDS011;4983;42.112;24.738;2022-09-09T06:36:58;22.90;;;9.50;;
9888;SDS011;4983;42.112;24.738;2022-09-09T06:39:25;15.57;;;8.80;;
9888;SDS011;4983;42.112;24.738;2022-09-09T06:41:52;25.77;;;9.93;;
9888;SDS011;4983;42.112;24.738;2022-09-09T06:44:21;14.83;;;9.77;;
9888;SDS011;4983;42.112;24.738;2022-09-09T06:46:48;21.50;;;8.83;;
9888;SDS011;4983;42.112;24.738;2022-09-09T06:49:15;26.23;;;9.20;;
9888;SDS011;4983;42.112;24.738;2022-09-09T06:51:42;29.60;;;9.93;;
9888;SDS011;4983;42.112;24.738;2022-09-09T06:54:10;13.03;;;7.70;;
9888;SDS011;4983;42.112;24.738;2022-09-09T06:56:38;17.97;;;8.70;;
9888;SDS011;4983;42.112;24.738;2022-09-09T06:59:08;12.60;;;6.50;;
9888;SDS011;4983;42.112;24.738;2022-09-09T07:01:39;14.83;;;6.47;;
9888;SDS011;4983;42.112;24.738;2022-09-09T07:04:07;11.40;;;6.17;;
9888;SDS011;4983;42.112;24.738;2022-09-09T07:06:36;11.73;;;6.27;;
9888;SDS011;4983;42.112;24.738;2022-09-09T07:09:05;8.57;;;5.53;;
9888;SDS011;4983;42.112;24.738;2022-09-09T07:11:36;15.73;;;6.63;;
9888;SDS011;4983;42.112;24.738;2022-09-09T07:14:05;10.53;;;6.07;;
9888;SDS011;4983;42.112;24.738;2022-09-09T07:16:33;56.83;;;11.07;;
9888;SDS011;4983;42.112;24.738;2022-09-09T07:19:04;17.50;;;6.27;;
9888;SDS011;4983;42.112;24.738;2022-09-09T07:21:31;8.70;;;6.03;;
9888;SDS011;4983;42.112;24.738;2022-09-09T07:24:00;39.23;;;9.50;;
9888;SDS011;4983;42.112;24.738;2022-09-09T07:26:28;16.43;;;6.50;;
9888;SDS011;4983;42.112;24.738;2022-09-09T07:28:57;7.53;;;6.27;;
9888;SDS011;4983;42.112;24.738;2022-09-09T07:31:24;10.87;;;5.43;;
9888;SDS011;4983;42.112;24.738;2022-09-09T07:33:53;16.50;;;6.30;;
9888;SDS011;4983;42.112;24.738;2022-09-09T07:36:22;7.87;;;5.70;;
9888;SDS011;4983;42.112;24.738;2022-09-09T07:38:51;20.07;;;8.17;;
9888;SDS011;4983;42.112;24.738;2022-09-09T07:41:20;8.80;;;6.80;;
9888;SDS011;4983;42.112;24.738;2022-09-09T07:43:51;19.50;;;7.00;;
9888;SDS011;4983;42.112;24.738;2022-09-09T07:46:19;18.80;;;5.80;;
9888;SDS011;4983;42.112;24.738;2022-09-09T07:48:49;10.73;;;5.40;;
9888;SDS011;4983;42.112;24.738;2022-09-09T07:51:18;16.00;;;5.80;;
9888;SDS011;4983;42.112;24.738;2022-09-09T07:53:51;16.43;;;7.60;;
9888;SDS011;4983;42.112;24.738;2022-09-09T07:56:19;15.33;;;6.47;;
9888;SDS011;4983;42.112;24.738;2022-09-09T07:58:49;10.37;;;5.60;;
9888;SDS011;4983;42.112;24.738;2022-09-09T08:01:19;9.43;;;6.43;;
9888;SDS011;4983;42.112;24.738;2022-09-09T08:03:52;23.53;;;7.10;;
9888;SDS011;4983;42.112;24.738;2022-09-09T08:06:20;44.23;;;9.10;;
9888;SDS011;4983;42.112;24.738;2022-09-09T08:08:52;17.67;;;6.13;;
9888;SDS011;4983;42.112;24.738;2022-09-09T08:11:20;30.10;;;7.10;;
9888;SDS011;4983;42.112;24.738;2022-09-09T08:13:49;12.57;;;5.50;;
9888;SDS011;4983;42.112;24.738;2022-09-09T08:16:19;9.87;;;5.83;;
9888;SDS011;4983;42.112;24.738;2022-09-09T08:18:48;13.87;;;5.70;;
9888;SDS011;4983;42.112;24.738;2022-09-09T08:21:17;7.47;;;5.43;;
9888;SDS011;4983;42.112;24.738;2022-09-09T08:23:47;22.33;;;7.33;;
9888;SDS011;4983;42.112;24.738;2022-09-09T08:26:16;18.10;;;6.43;;
9888;SDS011;4983;42.112;24.738;2022-09-09T08:28:48;10.80;;;5.70;;
9888;SDS011;4983;42.112;24.738;2022-09-09T08:31:17;34.67;;;8.57;;
9888;SDS011;4983;42.112;24.738;2022-09-09T08:33:46;9.57;;;5.60;;
9888;SDS011;4983;42.112;24.738;2022-09-09T08:36:14;10.47;;;5.60;;
9888;SDS011;4983;42.112;24.738;2022-09-09T08:38:43;32.83;;;7.53;;
9888;SDS011;4983;42.112;24.738;2022-09-09T08:41:26;15.60;;;6.00;;
9888;SDS011;4983;42.112;24.738;2022-09-09T08:44:04;11.77;;;5.57;;
9888;SDS011;4983;42.112;24.738;2022-09-09T08:46:37;20.60;;;6.87;;
9888;SDS011;4983;42.112;24.738;2022-09-09T08:49:15;108.70;;;13.43;;
9888;SDS011;4983;42.112;24.738;2022-09-09T08:51:53;12.27;;;5.43;;
9888;SDS011;4983;42.112;24.738;2022-09-09T08:54:23;37.77;;;8.10;;
9888;SDS011;4983;42.112;24.738;2022-09-09T08:56:54;7.97;;;5.63;;
9888;SDS011;4983;42.112;24.738;2022-09-09T08:59:23;9.47;;;5.60;;
9888;SDS011;4983;42.112;24.738;2022-09-09T09:01:52;8.67;;;4.90;;
9888;SDS011;4983;42.112;24.738;2022-09-09T09:04:38;17.17;;;5.80;;
9888;SDS011;4983;42.112;24.738;2022-09-09T09:07:17;16.30;;;5.87;;
9888;SDS011;4983;42.112;24.738;2022-09-09T09:09:57;11.90;;;5.30;;
9888;SDS011;4983;42.112;24.738;2022-09-09T09:12:35;51.93;;;7.77;;
9888;SDS011;4983;42.112;24.738;2022-09-09T09:15:09;38.10;;;8.63;;
9888;SDS011;4983;42.112;24.738;2022-09-09T09:17:42;23.13;;;6.57;;
9888;SDS011;4983;42.112;24.738;2022-09-09T09:20:12;9.10;;;5.30;;
9888;SDS011;4983;42.112;24.738;2022-09-09T09:22:43;9.67;;;5.70;;
9888;SDS011;4983;42.112;24.738;2022-09-09T09:25:15;12.77;;;5.80;;
9888;SDS011;4983;42.112;24.738;2022-09-09T09:27:51;26.37;;;6.50;;
9888;SDS011;4983;42.112;24.738;2022-09-09T09:30:26;40.67;;;7.90;;
9888;SDS011;4983;42.112;24.738;2022-09-09T09:33:01;12.23;;;5.50;;
9888;SDS011;4983;42.112;24.738;2022-09-09T09:35:32;26.43;;;6.90;;
9888;SDS011;4983;42.112;24.738;2022-09-09T09:38:01;11.40;;;5.47;;
9888;SDS011;4983;42.112;24.738;2022-09-09T09:40:29;8.53;;;5.67;;
9888;SDS011;4983;42.112;24.738;2022-09-09T09:42:58;10.07;;;5.47;;
9888;SDS011;4983;42.112;24.738;2022-09-09T09:45:28;13.40;;;6.20;;
9888;SDS011;4983;42.112;24.738;2022-09-09T09:48:01;10.63;;;5.60;;
9888;SDS011;4983;42.112;24.738;2022-09-09T09:50:30;30.07;;;8.40;;
9888;SDS011;4983;42.112;24.738;2022-09-09T09:53:00;8.53;;;5.87;;
9888;SDS011;4983;42.112;24.738;2022-09-09T09:55:30;10.73;;;6.07;;
9888;SDS011;4983;42.112;24.738;2022-09-09T09:58:03;20.47;;;6.83;;
9888;SDS011;4983;42.112;24.738;2022-09-09T10:00:32;8.60;;;6.10;;
9888;SDS011;4983;42.112;24.738;2022-09-09T10:03:12;24.47;;;7.83;;
9888;SDS011;4983;42.112;24.738;2022-09-09T10:05:49;11.13;;;6.30;;
9888;SDS011;4983;42.112;24.738;2022-09-09T10:08:16;33.17;;;7.53;;
9888;SDS011;4983;42.112;24.738;2022-09-09T10:10:53;152.57;;;17.53;;
9888;SDS011;4983;42.112;24.738;2022-09-09T10:13:37;8.20;;;6.17;;
9888;SDS011;4983;42.112;24.738;2022-09-09T10:16:16;11.70;;;6.07;;
9888;SDS011;4983;42.112;24.738;2022-09-09T10:18:57;11.93;;;6.80;;
9888;SDS011;4983;42.112;24.738;2022-09-09T10:21:30;27.57;;;8.40;;
9888;SDS011;4983;42.112;24.738;2022-09-09T10:24:18;13.17;;;7.13;;
9888;SDS011;4983;42.112;24.738;2022-09-09T10:26:58;9.33;;;6.20;;
9888;SDS011;4983;42.112;24.738;2022-09-09T10:32:38;9.60;;;6.70;;
9888;SDS011;4983;42.112;24.738;2022-09-09T10:35:20;13.77;;;6.53;;
9888;SDS011;4983;42.112;24.738;2022-09-09T10:38:01;13.17;;;6.57;;
9888;SDS011;4983;42.112;24.738;2022-09-09T10:40:41;7.73;;;6.40;;
9888;SDS011;4983;42.112;24.738;2022-09-09T10:43:23;17.63;;;6.83;;
9888;SDS011;4983;42.112;24.738;2022-09-09T10:46:08;10.90;;;6.53;;
9888;SDS011;4983;42.112;24.738;2022-09-09T10:48:47;11.87;;;6.80;;
9888;SDS011;4983;42.112;24.738;2022-09-09T10:51:32;9.50;;;6.50;;
9888;SDS011;4983;42.112;24.738;2022-09-09T10:54:17;15.90;;;6.63;;
9888;SDS011;4983;42.112;24.738;2022-09-09T10:56:58;78.50;;;11.40;;
9888;SDS011;4983;42.112;24.738;2022-09-09T10:59:31;12.83;;;6.57;;
9888;SDS011;4983;42.112;24.738;2022-09-09T11:02:05;40.77;;;8.80;;
9888;SDS011;4983;42.112;24.738;2022-09-09T11:04:41;6.37;;;5.77;;
9888;SDS011;4983;42.112;24.738;2022-09-09T11:07:12;11.13;;;6.73;;
9888;SDS011;4983;42.112;24.738;2022-09-09T11:09:48;11.10;;;6.00;;
9888;SDS011;4983;42.112;24.738;2022-09-09T11:12:21;83.00;;;11.60;;
9888;SDS011;4983;42.112;24.738;2022-09-09T11:14:53;12.77;;;6.53;;
9888;SDS011;4983;42.112;24.738;2022-09-09T11:17:26;9.07;;;5.77;;
9888;SDS011;4983;42.112;24.738;2022-09-09T11:19:59;10.53;;;5.87;;
9888;SDS011;4983;42.112;24.738;2022-09-09T11:22:27;13.43;;;6.20;;
9888;SDS011;4983;42.112;24.738;2022-09-09T11:24:58;9.63;;;5.80;;
9888;SDS011;4983;42.112;24.738;2022-09-09T11:27:29;8.83;;;5.83;;
9888;SDS011;4983;42.112;24.738;2022-09-09T11:30:13;55.80;;;10.03;;
9888;SDS011;4983;42.112;24.738;2022-09-09T11:32:54;8.30;;;5.60;;
9888;SDS011;4983;42.112;24.738;2022-09-09T11:35:45;9.43;;;5.93;;
9888;SDS011;4983;42.112;24.738;2022-09-09T11:38:25;10.50;;;5.93;;
9888;SDS011;4983;42.112;24.738;2022-09-09T11:40:54;10.20;;;5.87;;
9888;SDS011;4983;42.112;24.738;2022-09-09T11:43:26;7.30;;;5.83;;
9888;SDS011;4983;42.112;24.738;2022-09-09T11:45:58;10.97;;;5.57;;
9888;SDS011;4983;42.112;24.738;2022-09-09T11:48:38;12.97;;;5.70;;
9888;SDS011;4983;42.112;24.738;2022-09-09T11:51:10;87.90;;;12.53;;
9888;SDS011;4983;42.112;24.738;2022-09-09T11:53:49;21.43;;;7.20;;
9888;SDS011;4983;42.112;24.738;2022-09-09T11:56:24;15.53;;;5.90;;
9888;SDS011;4983;42.112;24.738;2022-09-09T11:58:55;73.77;;;11.10;;
9888;SDS011;4983;42.112;24.738;2022-09-09T12:04:14;9.23;;;5.70;;
9888;SDS011;4983;42.112;24.738;2022-09-09T12:06:58;42.63;;;7.87;;
9888;SDS011;4983;42.112;24.738;2022-09-09T12:09:43;45.17;;;8.63;;
9888;SDS011;4983;42.112;24.738;2022-09-09T12:15:26;125.03;;;17.13;;
9888;SDS011;4983;42.112;24.738;2022-09-09T12:17:59;20.87;;;6.90;;
9888;SDS011;4983;42.112;24.738;2022-09-09T12:20:36;29.83;;;7.73;;
9888;SDS011;4983;42.112;24.738;2022-09-09T12:26:05;151.73;;;17.30;;
9888;SDS011;4983;42.112;24.738;2022-09-09T12:28:53;8.63;;;5.30;;
9888;SDS011;4983;42.112;24.738;2022-09-09T12:31:30;15.83;;;5.73;;
9888;SDS011;4983;42.112;24.738;2022-09-09T12:34:09;46.30;;;7.47;;
9888;SDS011;4983;42.112;24.738;2022-09-09T12:37:02;20.63;;;6.53;;
9888;SDS011;4983;42.112;24.738;2022-09-09T12:39:44;11.70;;;5.30;;
9888;SDS011;4983;42.112;24.738;2022-09-09T12:42:18;8.00;;;5.17;;
9888;SDS011;4983;42.112;24.738;2022-09-09T12:44:53;5.67;;;5.10;;
9888;SDS011;4983;42.112;24.738;2022-09-09T12:47:26;13.47;;;5.53;;
9888;SDS011;4983;42.112;24.738;2022-09-09T12:50:04;11.17;;;5.23;;
9888;SDS011;4983;42.112;24.738;2022-09-09T12:52:45;8.07;;;5.60;;
9888;SDS011;4983;42.112;24.738;2022-09-09T12:55:16;12.03;;;5.57;;
9888;SDS011;4983;42.112;24.738;2022-09-09T12:57:50;13.57;;;5.50;;
9888;SDS011;4983;42.112;24.738;2022-09-09T13:00:22;5.93;;;5.00;;
9888;SDS011;4983;42.112;24.738;2022-09-09T13:02:53;37.70;;;9.93;;
9888;SDS011;4983;42.112;24.738;2022-09-09T13:05:37;11.10;;;5.40;;
9888;SDS011;4983;42.112;24.738;2022-09-09T13:08:08;12.37;;;5.80;;
9888;SDS011;4983;42.112;24.738;2022-09-09T13:10:39;15.57;;;5.47;;
9888;SDS011;4983;42.112;24.738;2022-09-09T13:13:14;17.43;;;5.70;;
9888;SDS011;4983;42.112;24.738;2022-09-09T13:15:48;18.17;;;6.70;;
9888;SDS011;4983;42.112;24.738;2022-09-09T13:18:18;8.37;;;5.30;;
9888;SDS011;4983;42.112;24.738;2022-09-09T13:20:49;18.17;;;6.03;;
9888;SDS011;4983;42.112;24.738;2022-09-09T13:23:19;18.07;;;6.10;;
9888;SDS011;4983;42.112;24.738;2022-09-09T13:25:53;11.90;;;5.73;;
9888;SDS011;4983;42.112;24.738;2022-09-09T13:28:23;7.60;;;5.77;;
9888;SDS011;4983;42.112;24.738;2022-09-09T13:30:56;17.50;;;6.40;;
9888;SDS011;4983;42.112;24.738;2022-09-09T13:33:29;10.87;;;6.00;;
9888;SDS011;4983;42.112;24.738;2022-09-09T13:35:59;15.47;;;6.87;;
9888;SDS011;4983;42.112;24.738;2022-09-09T13:38:32;7.77;;;5.90;;
9888;SDS011;4983;42.112;24.738;2022-09-09T13:41:03;43.67;;;9.07;;
9888;SDS011;4983;42.112;24.738;2022-09-09T13:43:34;9.17;;;6.33;;
9888;SDS011;4983;42.112;24.738;2022-09-09T13:46:05;24.37;;;8.17;;
9888;SDS011;4983;42.112;24.738;2022-09-09T13:48:53;8.30;;;6.30;;
9888;SDS011;4983;42.112;24.738;2022-09-09T13:51:25;27.53;;;7.70;;
9888;SDS011;4983;42.112;24.738;2022-09-09T13:53:59;16.37;;;7.23;;
9888;SDS011;4983;42.112;24.738;2022-09-09T13:56:26;16.70;;;6.87;;
9888;SDS011;4983;42.112;24.738;2022-09-09T13:58:53;40.47;;;9.87;;
9888;SDS011;4983;42.112;24.738;2022-09-09T14:01:20;9.33;;;6.50;;
9888;SDS011;4983;42.112;24.738;2022-09-09T14:03:48;39.37;;;10.63;;
9888;SDS011;4983;42.112;24.738;2022-09-09T14:06:16;11.17;;;6.83;;
9888;SDS011;4983;42.112;24.738;2022-09-09T14:08:44;29.40;;;8.57;;
9888;SDS011;4983;42.112;24.738;2022-09-09T14:11:13;29.70;;;8.10;;
9888;SDS011;4983;42.112;24.738;2022-09-09T14:13:40;15.13;;;7.40;;
9888;SDS011;4983;42.112;24.738;2022-09-09T14:16:07;16.50;;;7.17;;
9888;SDS011;4983;42.112;24.738;2022-09-09T14:18:35;14.87;;;6.93;;
9888;SDS011;4983;42.112;24.738;2022-09-09T14:21:03;24.13;;;8.27;;
9888;SDS011;4983;42.112;24.738;2022-09-09T14:23:30;14.70;;;6.90;;
9888;SDS011;4983;42.112;24.738;2022-09-09T14:25:57;10.73;;;6.50;;
9888;SDS011;4983;42.112;24.738;2022-09-09T14:28:27;9.73;;;6.73;;
9888;SDS011;4983;42.112;24.738;2022-09-09T14:30:58;13.70;;;6.80;;
9888;SDS011;4983;42.112;24.738;2022-09-09T14:33:26;8.37;;;6.87;;
9888;SDS011;4983;42.112;24.738;2022-09-09T14:35:56;16.37;;;7.50;;
9888;SDS011;4983;42.112;24.738;2022-09-09T14:38:23;8.50;;;6.10;;
9888;SDS011;4983;42.112;24.738;2022-09-09T14:40:51;75.60;;;12.73;;
9888;SDS011;4983;42.112;24.738;2022-09-09T14:43:18;9.07;;;6.13;;
9888;SDS011;4983;42.112;24.738;2022-09-09T14:45:48;14.90;;;7.70;;
9888;SDS011;4983;42.112;24.738;2022-09-09T14:48:16;13.33;;;6.30;;
9888;SDS011;4983;42.112;24.738;2022-09-09T14:50:44;34.90;;;10.27;;
9888;SDS011;4983;42.112;24.738;2022-09-09T14:53:13;10.97;;;6.77;;
9888;SDS011;4983;42.112;24.738;2022-09-09T14:55:43;20.23;;;7.37;;
9888;SDS011;4983;42.112;24.738;2022-09-09T14:58:12;20.40;;;7.20;;
9888;SDS011;4983;42.112;24.738;2022-09-09T15:00:40;24.43;;;7.70;;
9888;SDS011;4983;42.112;24.738;2022-09-09T15:03:09;22.00;;;7.70;;
9888;SDS011;4983;42.112;24.738;2022-09-09T15:05:36;15.13;;;7.47;;
9888;SDS011;4983;42.112;24.738;2022-09-09T15:08:03;32.23;;;8.40;;
9888;SDS011;4983;42.112;24.738;2022-09-09T15:10:31;21.80;;;7.80;;
9888;SDS011;4983;42.112;24.738;2022-09-09T15:12:58;14.33;;;6.50;;
9888;SDS011;4983;42.112;24.738;2022-09-09T15:15:25;24.00;;;7.80;;
9888;SDS011;4983;42.112;24.738;2022-09-09T15:17:53;14.40;;;6.93;;
9888;SDS011;4983;42.112;24.738;2022-09-09T15:20:22;19.27;;;6.97;;
9888;SDS011;4983;42.112;24.738;2022-09-09T15:22:49;14.53;;;6.70;;
9888;SDS011;4983;42.112;24.738;2022-09-09T15:25:18;12.17;;;6.77;;
9888;SDS011;4983;42.112;24.738;2022-09-09T15:27:45;27.93;;;8.00;;